Time;durP1;ratioP1;P1;durP2;ratioP2;P2;SDS_P1;SDS_P2;PMS_P1;PMS_P2;Temp;Humidity;BMP_temperature;BMP_pressure;BME280_temperature;BME280_humidity;BME280_pressure;Samples;Min_cycle;Max_cycle;Signal;HPM_P1;HPM_P2
2024/03/01 00:00:44;;;;;;;16.50;14.77;;;10.10;99.90;;;;;;6270500;22;38080;-73
2024/03/01 00:03:10;;;;;;;20.17;15.47;;;10.20;99.90;;;;;;6275681;22;39038;-74
2024/03/01 00:05:37;;;;;;;18.37;15.20;;;10.20;99.90;;;;;;6279494;22;38865;-75
2024/03/01 00:08:03;;;;;;;19.00;16.30;;;10.20;99.90;;;;;;6275694;22;38026;-74
2024/03/01 00:10:29;;;;;;;17.60;15.57;;;10.20;99.90;;;;;;6272262;22;38717;-73
2024/03/01 00:12:55;;;;;;;18.33;16.23;;;10.20;99.90;;;;;;6274013;22;39701;-72
2024/03/01 00:15:22;;;;;;;18.13;14.03;;;10.20;99.90;;;;;;6271589;22;40012;-74
2024/03/01 00:17:48;;;;;;;16.70;14.87;;;10.20;99.90;;;;;;6276374;22;38673;-73
2024/03/01 00:20:14;;;;;;;15.40;13.77;;;10.20;99.90;;;;;;6274209;22;38477;-73
2024/03/01 00:22:40;;;;;;;16.20;14.37;;;10.20;99.90;;;;;;6274342;22;40476;-73
2024/03/01 00:25:10;;;;;;;16.17;14.47;;;10.20;99.90;;;;;;6272318;22;38982;-74
2024/03/01 00:27:36;;;;;;;17.43;15.17;;;10.20;99.90;;;;;;6272108;22;37220;-73
2024/03/01 00:30:03;;;;;;;15.97;13.97;;;10.20;99.90;;;;;;6274820;22;38407;-73
2024/03/01 00:32:32;;;;;;;16.20;14.13;;;10.30;99.90;;;;;;6272238;22;39744;-74
2024/03/01 00:34:58;;;;;;;16.30;14.60;;;10.30;99.90;;;;;;6276300;22;38171;-73
2024/03/01 00:37:24;;;;;;;17.00;14.57;;;10.30;99.90;;;;;;6274100;22;37643;-73
2024/03/01 00:39:50;;;;;;;16.77;15.00;;;10.30;99.90;;;;;;6272263;22;37094;-73
2024/03/01 00:42:16;;;;;;;15.37;13.87;;;10.30;99.90;;;;;;6274783;22;38784;-74
2024/03/01 00:44:42;;;;;;;15.30;13.77;;;10.30;99.90;;;;;;6273519;22;38875;-74
2024/03/01 00:47:09;;;;;;;15.57;14.03;;;10.30;99.90;;;;;;6272568;22;38374;-75
2024/03/01 00:49:35;;;;;;;15.30;13.60;;;10.40;99.90;;;;;;6275064;22;37055;-73
2024/03/01 00:52:01;;;;;;;14.27;12.87;;;10.30;99.90;;;;;;6273221;22;40366;-73
2024/03/01 00:54:27;;;;;;;13.40;12.00;;;10.30;99.90;;;;;;6260766;22;46825;-75
2024/03/01 00:56:53;;;;;;;13.90;12.47;;;10.30;99.90;;;;;;6276941;22;38680;-73
2024/03/01 00:59:22;;;;;;;14.13;12.73;;;10.30;99.90;;;;;;6272158;22;38566;-74
2024/03/01 01:01:49;;;;;;;16.10;12.00;;;10.30;99.90;;;;;;6266148;22;40548;-73
2024/03/01 01:04:15;;;;;;;14.17;12.37;;;10.30;99.90;;;;;;6271641;22;38745;-74
2024/03/01 01:06:42;;;;;;;14.37;12.87;;;10.40;99.90;;;;;;6276021;22;38466;-74
2024/03/01 01:09:08;;;;;;;13.83;11.80;;;10.40;99.90;;;;;;6276403;22;38708;-74
2024/03/01 01:11:34;;;;;;;12.63;11.27;;;10.40;99.90;;;;;;6274140;22;40408;-74
2024/03/01 01:14:00;;;;;;;11.77;10.57;;;10.30;99.90;;;;;;6276931;22;38334;-74
2024/03/01 01:16:26;;;;;;;12.53;11.27;;;10.40;99.90;;;;;;6276910;22;47864;-74
2024/03/01 01:18:53;;;;;;;12.87;10.63;;;10.30;99.90;;;;;;6278904;22;37608;-74
2024/03/01 01:21:20;;;;;;;13.90;10.77;;;10.40;99.90;;;;;;6275684;22;39157;-74
2024/03/01 01:23:46;;;;;;;13.50;9.90;;;10.40;99.90;;;;;;6275061;22;37430;-75
2024/03/01 01:26:12;;;;;;;11.07;9.90;;;10.40;99.90;;;;;;6272443;22;38472;-74
2024/03/01 01:28:38;;;;;;;12.53;10.33;;;10.40;99.90;;;;;;6275175;22;38679;-75
2024/03/01 01:31:07;;;;;;;10.77;9.60;;;10.40;99.90;;;;;;6274694;22;38819;-74
2024/03/01 01:33:34;;;;;;;10.87;9.77;;;10.30;99.90;;;;;;6275582;22;39266;-74
2024/03/01 01:36:00;;;;;;;12.80;9.57;;;10.40;99.90;;;;;;6275230;22;36868;-74
2024/03/01 01:38:26;;;;;;;10.50;9.17;;;10.40;99.90;;;;;;6273057;22;37428;-73
2024/03/01 01:40:52;;;;;;;12.30;9.93;;;10.40;99.90;;;;;;6273404;22;39932;-73
2024/03/01 01:43:18;;;;;;;11.67;9.87;;;10.40;99.90;;;;;;6276300;22;38680;-73
2024/03/01 01:45:45;;;;;;;9.57;8.43;;;10.40;99.90;;;;;;6276937;22;38220;-75
2024/03/01 01:48:11;;;;;;;9.50;8.50;;;10.50;99.90;;;;;;6276587;22;37866;-73
2024/03/01 01:50:38;;;;;;;9.57;7.40;;;10.60;99.90;;;;;;6273863;22;39223;-73
2024/03/01 01:53:05;;;;;;;13.47;6.97;;;10.50;99.90;;;;;;6276002;22;38412;-74
2024/03/01 01:55:32;;;;;;;9.80;5.47;;;10.30;99.90;;;;;;6273966;22;38049;-73
2024/03/01 01:57:59;;;;;;;8.27;4.87;;;10.00;99.90;;;;;;6275778;22;36142;-73
2024/03/01 02:03:01;;;;;;;12.77;3.83;;;9.30;99.90;;;;;;6254635;22;20024;-76
2024/03/01 02:05:28;;;;;;;11.20;3.47;;;9.20;99.90;;;;;;6272935;22;47212;-76
2024/03/01 02:07:56;;;;;;;10.93;2.40;;;8.80;99.90;;;;;;6274253;22;37590;-76
2024/03/01 02:10:24;;;;;;;7.30;1.93;;;8.70;99.90;;;;;;6274922;22;39218;-76
2024/03/01 02:12:57;;;;;;;8.70;1.93;;;8.60;99.90;;;;;;6275905;22;37340;-76
2024/03/01 02:15:27;;;;;;;5.87;1.70;;;8.40;99.90;;;;;;6274332;22;38330;-76
2024/03/01 02:17:54;;;;;;;6.90;1.77;;;8.30;99.90;;;;;;6275651;22;38108;-76
2024/03/01 02:20:21;;;;;;;5.50;2.10;;;8.20;99.90;;;;;;6273895;22;40608;-76
2024/03/01 02:22:59;;;;;;;6.03;1.50;;;8.10;99.90;;;;;;6279396;22;38576;-77
2024/03/01 02:25:26;;;;;;;5.50;1.40;;;7.90;99.90;;;;;;6278149;22;37248;-77
2024/03/01 02:27:52;;;;;;;4.43;1.17;;;7.90;99.90;;;;;;6282470;22;37669;-77
2024/03/01 02:30:18;;;;;;;7.07;1.30;;;7.80;99.90;;;;;;6281147;22;39924;-76
2024/03/01 02:32:46;;;;;;;4.20;0.80;;;7.70;99.90;;;;;;6279036;22;38894;-76
2024/03/01 02:35:12;;;;;;;2.80;1.07;;;7.60;99.90;;;;;;6279190;22;37338;-76
2024/03/01 02:37:38;;;;;;;5.70;1.10;;;7.50;99.90;;;;;;6282305;22;38261;-76
2024/03/01 02:40:05;;;;;;;5.73;1.33;;;7.50;99.90;;;;;;6278424;22;37874;-77
2024/03/01 02:42:32;;;;;;;2.80;0.93;;;7.40;99.90;;;;;;6280001;22;37501;-77
2024/03/01 02:45:00;;;;;;;5.03;1.13;;;7.40;99.90;;;;;;6276826;22;37151;-78
2024/03/01 02:47:26;;;;;;;5.87;1.10;;;7.40;99.90;;;;;;6282412;22;37993;-77
2024/03/01 02:49:53;;;;;;;5.07;1.40;;;7.30;99.90;;;;;;6279015;22;37544;-77
2024/03/01 02:52:20;;;;;;;8.73;1.23;;;7.30;99.90;;;;;;6280043;22;39303;-76
2024/03/01 02:54:46;;;;;;;3.43;0.90;;;7.30;99.90;;;;;;6275141;22;37675;-75
2024/03/01 02:57:12;;;;;;;6.53;1.10;;;7.40;99.90;;;;;;6275269;22;37180;-76
2024/03/01 02:59:38;;;;;;;4.10;1.00;;;7.30;99.90;;;;;;6274822;22;37829;-76
2024/03/01 03:02:05;;;;;;;6.63;0.90;;;7.30;99.90;;;;;;6277383;22;38596;-75
2024/03/01 03:04:31;;;;;;;1.43;0.70;;;7.30;99.90;;;;;;6277586;22;38098;-76
2024/03/01 03:06:58;;;;;;;2.57;0.90;;;7.30;99.90;;;;;;6275600;22;36067;-75
2024/03/01 03:09:24;;;;;;;1.10;0.87;;;7.30;99.90;;;;;;6273112;22;37718;-76
2024/03/01 03:11:50;;;;;;;4.00;1.20;;;7.30;99.90;;;;;;6274680;22;37130;-76
2024/03/01 03:14:16;;;;;;;4.80;1.27;;;7.40;99.90;;;;;;6276732;22;37808;-75
2024/03/01 03:16:42;;;;;;;7.67;1.50;;;7.40;99.90;;;;;;6275230;22;36026;-75
2024/03/01 03:19:08;;;;;;;2.67;1.00;;;7.40;99.90;;;;;;6276293;22;39346;-76
2024/03/01 03:21:35;;;;;;;7.53;1.00;;;7.30;99.90;;;;;;6277066;22;38622;-75
2024/03/01 03:24:01;;;;;;;8.93;1.30;;;7.30;99.90;;;;;;6273749;22;37189;-75
2024/03/01 03:26:28;;;;;;;5.10;0.90;;;7.20;99.90;;;;;;6277021;22;36824;-75
2024/03/01 03:28:54;;;;;;;4.63;0.80;;;7.20;99.90;;;;;;6274891;22;38726;-75
2024/03/01 03:31:21;;;;;;;6.70;1.23;;;7.10;99.90;;;;;;6276016;22;38512;-77
2024/03/01 03:33:47;;;;;;;4.53;1.30;;;7.10;99.90;;;;;;6278887;22;37860;-76
2024/03/01 03:36:13;;;;;;;3.63;0.80;;;7.10;99.90;;;;;;6277759;22;38295;-75
2024/03/01 03:38:39;;;;;;;2.40;0.80;;;7.20;99.90;;;;;;6277684;22;38492;-75
2024/03/01 03:41:06;;;;;;;8.10;2.87;;;7.20;99.90;;;;;;6276265;22;40744;-76
2024/03/01 03:43:32;;;;;;;5.37;1.10;;;7.20;99.90;;;;;;6279282;22;39129;-76
2024/03/01 03:45:58;;;;;;;3.93;1.00;;;7.20;99.90;;;;;;6275719;22;36109;-76
2024/03/01 03:48:25;;;;;;;5.83;1.10;;;7.20;99.90;;;;;;6277159;22;38909;-76
2024/03/01 03:50:51;;;;;;;7.60;1.70;;;7.20;99.90;;;;;;6279184;22;38508;-77
2024/03/01 03:53:18;;;;;;;13.53;1.93;;;7.20;99.90;;;;;;6275687;22;37221;-76
2024/03/01 03:55:44;;;;;;;3.33;1.10;;;7.20;99.90;;;;;;6277240;22;36585;-77
2024/03/01 03:58:10;;;;;;;9.17;2.23;;;7.20;99.90;;;;;;6273483;22;39539;-75
2024/03/01 04:00:36;;;;;;;6.47;1.50;;;7.20;99.90;;;;;;6274462;22;37362;-76
2024/03/01 04:03:03;;;;;;;6.10;1.57;;;7.20;99.90;;;;;;6276915;22;37839;-76
2024/03/01 04:05:29;;;;;;;6.53;1.53;;;7.30;99.90;;;;;;6275329;22;37040;-75
2024/03/01 04:07:55;;;;;;;5.83;1.70;;;7.20;99.90;;;;;;6277768;22;38579;-75
2024/03/01 04:10:22;;;;;;;9.90;2.00;;;7.30;99.90;;;;;;6277631;22;38708;-75
2024/03/01 04:12:48;;;;;;;9.43;1.37;;;7.30;99.90;;;;;;6278935;22;37879;-76
2024/03/01 04:15:15;;;;;;;6.67;1.20;;;7.20;99.90;;;;;;6272340;22;36355;-75
2024/03/01 04:17:41;;;;;;;5.60;1.00;;;7.20;99.90;;;;;;6274653;22;39018;-75
2024/03/01 04:20:08;;;;;;;3.07;1.17;;;7.20;99.90;;;;;;6277454;22;39161;-75
2024/03/01 04:22:34;;;;;;;7.13;1.00;;;7.20;99.90;;;;;;6280743;22;37047;-75
2024/03/01 04:25:00;;;;;;;4.60;0.90;;;7.10;99.90;;;;;;6280043;22;36093;-75
2024/03/01 04:27:26;;;;;;;3.87;1.00;;;7.10;99.90;;;;;;6279232;22;37698;-75
2024/03/01 04:29:53;;;;;;;8.57;1.00;;;7.00;99.90;;;;;;6284118;22;38546;-75
2024/03/01 04:32:19;;;;;;;5.17;1.30;;;7.00;99.90;;;;;;6280097;22;37012;-75
2024/03/01 04:34:45;;;;;;;5.13;0.80;;;7.00;99.90;;;;;;6283155;22;38681;-76
2024/03/01 04:37:14;;;;;;;3.73;0.93;;;6.90;99.90;;;;;;6281114;22;38971;-76
2024/03/01 04:39:40;;;;;;;1.53;0.83;;;6.90;99.90;;;;;;6281233;22;37404;-77
2024/03/01 04:42:08;;;;;;;3.20;1.00;;;6.80;99.90;;;;;;6281800;22;38390;-76
2024/03/01 04:44:34;;;;;;;3.73;1.03;;;6.70;99.90;;;;;;6278938;22;37587;-76
2024/03/01 04:47:00;;;;;;;3.53;0.93;;;6.70;99.90;;;;;;6278621;22;39254;-76
2024/03/01 04:49:26;;;;;;;6.37;1.23;;;6.60;99.90;;;;;;6279029;22;38846;-76
2024/03/01 04:51:54;;;;;;;4.17;1.13;;;6.50;99.90;;;;;;6281921;22;39155;-76
2024/03/01 04:54:20;;;;;;;4.33;1.33;;;6.40;99.90;;;;;;6277808;22;37191;-76
2024/03/01 04:56:46;;;;;;;4.97;0.97;;;6.40;99.90;;;;;;6278076;22;39750;-76
2024/03/01 04:59:12;;;;;;;4.60;0.93;;;6.40;99.90;;;;;;6277116;22;39349;-77
2024/03/01 05:01:40;;;;;;;6.23;0.97;;;6.30;99.90;;;;;;6280942;22;39038;-76
2024/03/01 05:04:09;;;;;;;7.77;1.10;;;6.30;99.90;;;;;;6278764;22;37637;-76
2024/03/01 05:06:37;;;;;;;4.67;1.30;;;6.20;99.90;;;;;;6278123;22;37451;-76
2024/03/01 05:09:03;;;;;;;3.00;1.40;;;6.20;99.90;;;;;;6279088;22;38303;-76
2024/03/01 05:11:33;;;;;;;6.00;1.37;;;6.10;99.90;;;;;;6277468;22;37198;-76
2024/03/01 05:14:00;;;;;;;7.20;1.43;;;6.10;99.90;;;;;;6279973;22;37572;-76
2024/03/01 05:16:27;;;;;;;5.50;1.97;;;6.20;99.90;;;;;;6276413;22;40403;-77
2024/03/01 05:18:53;;;;;;;7.13;1.80;;;6.20;99.90;;;;;;6280303;22;38612;-76
2024/03/01 05:21:22;;;;;;;9.60;1.60;;;6.30;99.90;;;;;;6279129;22;37732;-77
2024/03/01 05:23:51;;;;;;;3.07;1.47;;;6.40;99.90;;;;;;6275619;22;38756;-76
2024/03/01 05:26:17;;;;;;;5.97;1.87;;;6.30;99.90;;;;;;6276000;22;40158;-77
2024/03/01 05:28:43;;;;;;;4.27;1.60;;;6.30;99.90;;;;;;6276882;22;38929;-76
2024/03/01 05:31:09;;;;;;;5.30;2.20;;;6.20;99.90;;;;;;6278764;22;39203;-76
2024/03/01 05:33:35;;;;;;;10.00;2.33;;;6.20;99.90;;;;;;6273267;22;38046;-76
2024/03/01 05:36:05;;;;;;;5.37;2.47;;;6.20;99.90;;;;;;6278162;22;38573;-77
2024/03/01 05:38:33;;;;;;;8.63;2.40;;;6.20;99.90;;;;;;6275043;22;39951;-77
2024/03/01 05:41:00;;;;;;;8.50;2.60;;;6.20;99.90;;;;;;6272553;22;38694;-77
2024/03/01 05:43:26;;;;;;;8.67;2.40;;;6.20;99.90;;;;;;6272270;22;37951;-77
2024/03/01 05:45:54;;;;;;;7.93;2.63;;;6.20;99.90;;;;;;6273543;22;39346;-77
2024/03/01 05:48:20;;;;;;;4.63;2.40;;;6.20;99.90;;;;;;6274784;22;38607;-77
2024/03/01 05:50:46;;;;;;;10.47;2.93;;;6.20;99.90;;;;;;6275921;22;36915;-77
2024/03/01 05:53:15;;;;;;;5.37;2.40;;;6.20;99.90;;;;;;6279282;22;37033;-77
2024/03/01 05:55:41;;;;;;;7.10;2.50;;;6.10;99.90;;;;;;6281438;22;38476;-77
2024/03/01 05:58:08;;;;;;;8.40;2.63;;;6.20;99.90;;;;;;6280237;22;38498;-77
2024/03/01 06:00:38;;;;;;;6.73;3.60;;;6.20;99.90;;;;;;6276192;22;38326;-76
2024/03/01 06:03:04;;;;;;;10.80;3.07;;;6.20;99.90;;;;;;6277991;22;37465;-77
2024/03/01 06:05:30;;;;;;;7.87;3.20;;;6.20;99.90;;;;;;6276918;22;39583;-77
2024/03/01 06:07:56;;;;;;;12.30;3.10;;;6.20;99.90;;;;;;6280175;22;38406;-77
2024/03/01 06:10:22;;;;;;;5.03;2.90;;;6.10;99.90;;;;;;6278269;22;36988;-77
2024/03/01 06:12:49;;;;;;;5.70;3.57;;;6.10;99.90;;;;;;6277438;22;37963;-77
2024/03/01 06:15:15;;;;;;;12.30;4.17;;;6.10;99.90;;;;;;6274619;22;38893;-77
2024/03/01 06:17:41;;;;;;;11.43;4.53;;;6.10;99.90;;;;;;6278980;22;39742;-79
2024/03/01 06:20:09;;;;;;;8.80;4.40;;;6.10;99.90;;;;;;6282636;22;38838;-77
2024/03/01 06:22:35;;;;;;;7.40;4.07;;;6.10;99.90;;;;;;6282647;22;37186;-77
2024/03/01 06:25:01;;;;;;;11.47;4.63;;;6.20;99.90;;;;;;6281400;22;37315;-77
2024/03/01 06:27:27;;;;;;;11.83;5.67;;;6.20;99.90;;;;;;6281417;22;39053;-77
2024/03/01 06:29:53;;;;;;;10.90;5.43;;;6.30;99.90;;;;;;6278987;22;40075;-76
2024/03/01 06:32:19;;;;;;;13.30;5.90;;;6.30;99.90;;;;;;6276992;22;36235;-77
2024/03/01 06:34:48;;;;;;;11.07;5.40;;;6.30;99.90;;;;;;6275138;22;39422;-76
2024/03/01 06:37:20;;;;;;;10.57;5.80;;;6.30;99.90;;;;;;6275388;22;38516;-76
2024/03/01 06:39:46;;;;;;;15.70;5.60;;;6.30;99.90;;;;;;6276382;22;36930;-77
2024/03/01 06:42:12;;;;;;;10.30;5.00;;;6.30;99.90;;;;;;6275365;22;37735;-77
2024/03/01 06:44:38;;;;;;;7.37;4.77;;;6.20;99.90;;;;;;6274696;22;40458;-76
2024/03/01 06:47:05;;;;;;;9.23;4.83;;;6.30;99.90;;;;;;6271712;22;38967;-77
2024/03/01 06:49:31;;;;;;;13.93;5.27;;;6.30;99.90;;;;;;6273927;22;37185;-76
2024/03/01 06:51:58;;;;;;;13.40;5.17;;;6.30;99.90;;;;;;6276500;22;36066;-76
2024/03/01 06:54:24;;;;;;;14.13;6.73;;;6.20;99.90;;;;;;6275404;22;37638;-75
2024/03/01 06:56:50;;;;;;;17.50;6.63;;;6.20;99.90;;;;;;6275738;22;38985;-76
2024/03/01 06:59:16;;;;;;;18.43;7.97;;;6.20;99.90;;;;;;6275693;22;39180;-76
2024/03/01 07:01:42;;;;;;;17.00;9.00;;;6.10;99.90;;;;;;6274917;22;38285;-76
2024/03/01 07:04:09;;;;;;;14.60;9.00;;;6.10;99.90;;;;;;6273104;22;40162;-77
2024/03/01 07:06:35;;;;;;;21.50;9.43;;;6.10;99.90;;;;;;6273325;22;38529;-77
2024/03/01 07:09:01;;;;;;;21.90;10.17;;;6.10;99.90;;;;;;6274356;22;38436;-76
2024/03/01 07:11:28;;;;;;;20.77;11.77;;;6.10;99.90;;;;;;6271730;22;47196;-78
2024/03/01 07:13:55;;;;;;;25.60;12.17;;;6.10;99.90;;;;;;6274248;22;40406;-77
2024/03/01 07:16:21;;;;;;;24.53;13.37;;;6.00;99.90;;;;;;6271262;22;38562;-76
2024/03/01 07:18:48;;;;;;;25.87;15.03;;;6.00;99.90;;;;;;6273061;22;39198;-76
2024/03/01 07:21:14;;;;;;;28.13;15.07;;;6.10;99.90;;;;;;6260085;22;37997;-76
2024/03/01 07:23:40;;;;;;;23.73;14.80;;;6.20;99.90;;;;;;6258601;22;39692;-76
2024/03/01 07:26:06;;;;;;;30.13;15.77;;;6.10;99.90;;;;;;6259226;22;38586;-76
2024/03/01 07:28:32;;;;;;;32.73;17.10;;;6.10;99.90;;;;;;6260285;22;38381;-76
2024/03/01 07:30:59;;;;;;;29.67;15.67;;;6.10;99.90;;;;;;6256301;22;36327;-76
2024/03/01 07:33:25;;;;;;;31.60;16.53;;;6.10;99.90;;;;;;6255864;22;40225;-77
2024/03/01 07:35:52;;;;;;;31.73;18.03;;;6.10;99.90;;;;;;6255811;22;39244;-77
2024/03/01 07:38:18;;;;;;;32.33;16.37;;;6.20;99.90;;;;;;6259973;22;38982;-77
2024/03/01 07:40:44;;;;;;;25.03;14.97;;;6.20;99.90;;;;;;6259699;22;38159;-76
2024/03/01 07:43:13;;;;;;;28.97;15.70;;;6.20;99.90;;;;;;6255768;22;40027;-76
2024/03/01 07:45:39;;;;;;;25.60;14.73;;;6.30;99.90;;;;;;6258358;22;38122;-77
2024/03/01 07:48:06;;;;;;;22.97;13.67;;;6.30;99.90;;;;;;6257643;22;37425;-76
2024/03/01 07:50:32;;;;;;;25.20;13.77;;;6.30;99.90;;;;;;6256689;22;38287;-76
2024/03/01 07:52:58;;;;;;;22.50;12.33;;;6.40;99.90;;;;;;6257559;22;39482;-76
2024/03/01 07:55:24;;;;;;;27.93;12.90;;;6.50;99.90;;;;;;6257948;22;38244;-76
2024/03/01 07:57:51;;;;;;;27.70;14.60;;;6.50;99.90;;;;;;6257907;22;38534;-77
2024/03/01 08:00:17;;;;;;;23.30;13.83;;;6.50;99.90;;;;;;6258551;22;38304;-76
2024/03/01 08:02:44;;;;;;;25.33;14.60;;;6.50;99.90;;;;;;6261737;22;40814;-76
2024/03/01 08:05:10;;;;;;;24.13;14.57;;;6.50;99.90;;;;;;6257814;22;39166;-77
2024/03/01 08:07:37;;;;;;;25.40;15.30;;;6.60;99.90;;;;;;6261520;22;37620;-76
2024/03/01 08:10:04;;;;;;;29.40;15.63;;;6.60;99.90;;;;;;6261840;22;37232;-76
2024/03/01 08:12:30;;;;;;;31.30;15.70;;;6.60;99.90;;;;;;6257210;22;49027;-76
2024/03/01 08:14:57;;;;;;;26.97;15.57;;;6.60;99.90;;;;;;6259367;22;38149;-76
2024/03/01 08:17:27;;;;;;;25.87;16.23;;;6.60;99.90;;;;;;6257687;22;38569;-76
2024/03/01 08:19:53;;;;;;;28.57;15.83;;;6.60;99.90;;;;;;6257358;22;38807;-76
2024/03/01 08:22:21;;;;;;;23.07;14.77;;;6.70;99.90;;;;;;6254072;22;40963;-75
2024/03/01 08:24:49;;;;;;;29.40;14.07;;;6.70;99.90;;;;;;6257644;22;41030;-75
2024/03/01 08:27:23;;;;;;;28.17;14.37;;;6.80;99.90;;;;;;6254553;22;38570;-76
2024/03/01 08:29:49;;;;;;;27.07;13.90;;;6.80;99.90;;;;;;6254469;22;38806;-76
2024/03/01 08:32:41;;;;;;;28.20;13.73;;;6.80;99.90;;;;;;6253932;22;39439;-76
2024/03/01 08:35:14;;;;;;;25.33;13.47;;;6.80;99.90;;;;;;6241294;22;37577;-76
2024/03/01 08:37:41;;;;;;;27.27;13.32;;;6.90;99.90;;;;;;6257266;22;38408;-74
2024/03/01 08:40:47;;;;;;;22.10;12.67;;;7.00;99.90;;;;;;6255603;22;38209;-74
2024/03/01 08:43:15;;;;;;;24.30;13.63;;;7.00;99.90;;;;;;6257424;22;38276;-75
2024/03/01 08:45:44;;;;;;;22.47;14.13;;;7.00;99.90;;;;;;6258312;22;40139;-75
2024/03/01 08:48:19;;;;;;;21.53;13.63;;;7.00;99.90;;;;;;6257512;22;38076;-75
2024/03/01 08:50:50;;;;;;;18.57;12.00;;;7.00;99.90;;;;;;6261521;22;37716;-75
2024/03/01 08:53:39;;;;;;;18.93;12.10;;;7.00;99.90;;;;;;6259150;22;39549;-75
2024/03/01 08:56:08;;;;;;;21.33;12.03;;;7.10;99.90;;;;;;6262268;22;39478;-76
2024/03/01 08:58:36;;;;;;;24.07;12.30;;;7.20;99.90;;;;;;6258636;22;37553;-76
2024/03/01 09:01:03;;;;;;;22.67;11.40;;;7.20;99.90;;;;;;6259730;22;37807;-76
2024/03/01 09:03:30;;;;;;;15.87;10.60;;;7.10;99.90;;;;;;6261266;22;38545;-76
2024/03/01 09:05:58;;;;;;;13.83;9.07;;;7.20;99.90;;;;;;6259247;22;40026;-76
2024/03/01 09:08:31;;;;;;;14.90;8.27;;;7.20;99.90;;;;;;6258760;22;38714;-76
2024/03/01 09:10:57;;;;;;;;;;;7.00;99.90;;;;;;6257350;22;38184;-76
2024/03/01 09:13:27;;;;;;;11.90;7.80;;;7.10;99.90;;;;;;6258716;22;39946;-76
2024/03/01 09:15:55;;;;;;;12.90;7.00;;;7.10;99.90;;;;;;6258866;22;38814;-76
2024/03/01 09:18:49;;;;;;;14.87;7.07;;;7.10;99.90;;;;;;6257815;22;37318;-76
2024/03/01 09:21:38;;;;;;;12.03;7.37;;;7.10;99.90;;;;;;6255984;22;37934;-76
2024/03/01 09:24:04;;;;;;;11.70;6.20;;;7.10;99.90;;;;;;6256831;22;39629;-76
2024/03/01 09:26:31;;;;;;;9.93;5.87;;;7.30;99.90;;;;;;6260215;22;38675;-76
2024/03/01 09:29:02;;;;;;;11.77;5.20;;;7.40;99.90;;;;;;6261411;22;38803;-76
2024/03/01 09:31:32;;;;;;;8.47;4.53;;;7.50;99.90;;;;;;6255720;22;47174;-77
2024/03/01 09:34:07;;;;;;;9.77;4.77;;;7.30;99.90;;;;;;6258030;22;40644;-76
2024/03/01 09:36:33;;;;;;;10.27;5.93;;;7.40;90.70;;;;;;6261141;22;48828;-76
2024/03/01 09:39:04;;;;;;;12.10;7.13;;;7.50;93.80;;;;;;6260450;22;39326;-75
2024/03/01 09:42:00;;;;;;;13.33;7.33;;;7.70;86.70;;;;;;6257098;22;47656;-76
2024/03/01 09:44:34;;;;;;;15.97;9.03;;;7.70;91.20;;;;;;6211982;22;38980;-76
2024/03/01 09:47:27;;;;;;;16.60;9.43;;;7.80;94.10;;;;;;6256977;22;38677;-76
2024/03/01 09:50:21;;;;;;;15.23;10.05;;;7.70;98.30;;;;;;6244379;22;47222;-76
2024/03/01 09:53:40;;;;;;;14.87;10.53;;;7.50;97.10;;;;;;6262583;22;48780;-77
2024/03/01 09:56:30;;;;;;;11.67;9.53;;;7.50;99.90;;;;;;6167699;23;48641;-76
2024/03/01 09:59:23;;;;;;;14.37;9.93;;;7.70;96.40;;;;;;6168027;23;39665;-77
2024/03/01 10:01:58;;;;;;;15.43;8.60;;;7.70;58.90;;;;;;6228011;22;47268;-76
2024/03/01 10:04:43;;;;;;;14.47;8.70;;;7.60;52.80;;;;;;6254496;22;36082;-76
2024/03/01 10:07:37;;;;;;;17.17;8.40;;;7.50;62.80;;;;;;6262980;22;39498;-76
2024/03/01 10:10:13;;;;;;;15.10;7.50;;;7.70;51.60;;;;;;6258587;22;39234;-76
2024/03/01 10:13:08;;;;;;;13.97;7.10;;;7.80;53.50;;;;;;6266678;22;48442;-76
2024/03/01 10:15:50;;;;;;;12.47;5.60;;;8.00;29.80;;;;;;6245059;22;47534;-76
2024/03/01 10:18:41;;;;;;;9.27;4.70;;;8.10;25.30;;;;;;6267400;22;39114;-76
2024/03/01 10:21:18;;;;;;;8.50;3.90;;;8.10;25.50;;;;;;6274860;22;39460;-76
2024/03/01 10:24:19;;;;;;;11.47;4.17;;;8.40;22.40;;;;;;6278808;22;38164;-76
2024/03/01 10:27:03;;;;;;;10.83;3.73;;;8.40;22.90;;;;;;6270024;22;49287;-76
2024/03/01 10:29:46;;;;;;;6.10;2.97;;;8.60;34.70;;;;;;6264096;22;47090;-76
2024/03/01 10:32:33;;;;;;;6.10;3.03;;;8.80;10.60;;;;;;6262965;22;37566;-76
2024/03/01 10:35:08;;;;;;;7.40;3.07;;;8.90;5.80;;;;;;6265996;22;37974;-76
2024/03/01 10:37:47;;;;;;;6.33;2.50;;;9.00;1.00;;;;;;6257443;22;47223;-76
2024/03/01 10:40:17;;;;;;;8.43;2.30;;;9.10;1.00;;;;;;6260244;22;37790;-76
2024/03/01 10:43:03;;;;;;;7.13;2.20;;;9.10;1.00;;;;;;6258322;22;37236;-76
2024/03/01 10:46:03;;;;;;;6.17;2.03;;;9.30;1.00;;;;;;6261508;22;48514;-74
2024/03/01 10:48:43;;;;;;;6.80;1.80;;;9.40;1.00;;;;;;6261251;22;48068;-76
2024/03/01 10:51:15;;;;;;;4.67;1.90;;;9.30;1.00;;;;;;6261701;22;37987;-75
2024/03/01 10:53:49;;;;;;;7.67;2.17;;;9.40;1.00;;;;;;6261661;22;39836;-75
2024/03/01 10:56:18;;;;;;;9.10;2.20;;;9.40;1.00;;;;;;6264809;22;37898;-75
2024/03/01 10:58:54;;;;;;;8.47;1.83;;;9.40;1.00;;;;;;6262172;22;38276;-75
2024/03/01 11:01:36;;;;;;;4.70;1.60;;;9.50;1.00;;;;;;6258824;22;39550;-75
2024/03/01 11:04:29;;;;;;;7.32;1.80;;;9.30;1.00;;;;;;6259229;22;37849;-75
2024/03/01 11:07:14;;;;;;;4.63;1.60;;;9.50;1.00;;;;;;6260300;22;50189;-76
2024/03/01 11:10:06;;;;;;;5.60;1.70;;;9.60;1.00;;;;;;6259731;22;47361;-75
2024/03/01 11:12:52;;;;;;;8.47;1.77;;;9.70;1.00;;;;;;6258160;22;48543;-76
2024/03/01 11:15:19;;;;;;;5.23;1.60;;;9.60;1.00;;;;;;6258586;22;40035;-76
2024/03/01 11:17:49;;;;;;;9.47;2.67;;;9.40;1.00;;;;;;6257457;22;40653;-76
2024/03/01 11:20:28;;;;;;;7.27;1.33;;;9.40;1.00;;;;;;6260478;22;37289;-74
2024/03/01 11:23:06;;;;;;;3.93;1.50;;;9.60;1.00;;;;;;6264977;22;40353;-75
2024/03/01 11:25:55;;;;;;;6.70;1.40;;;9.80;1.00;;;;;;6257220;22;48286;-74
2024/03/01 11:28:24;;;;;;;7.00;1.50;;;9.80;1.00;;;;;;6236035;22;38755;-75
2024/03/01 11:30:55;;;;;;;7.33;1.33;;;9.80;1.00;;;;;;6256365;22;35861;-75
2024/03/01 11:33:23;;;;;;;6.20;1.20;;;9.80;1.00;;;;;;6256979;22;40014;-75
2024/03/01 11:36:15;;;;;;;8.80;1.33;;;9.90;1.00;;;;;;6260981;22;40242;-76
2024/03/01 11:38:57;;;;;;;8.82;1.48;;;10.10;1.00;;;;;;6259740;22;47359;-76
2024/03/01 11:41:33;;;;;;;7.50;1.25;;;10.10;1.00;;;;;;6257398;22;37943;-75
2024/03/01 11:44:25;;;;;;;4.00;1.20;;;10.00;1.00;;;;;;6259405;22;39551;-76
2024/03/01 11:47:14;;;;;;;3.70;1.27;;;10.00;1.00;;;;;;6258429;22;47626;-75
2024/03/01 11:49:51;;;;;;;5.73;1.17;;;9.90;1.00;;;;;;6259174;22;48557;-75
2024/03/01 11:52:26;;;;;;;3.60;1.10;;;9.80;1.00;;;;;;6261229;22;37355;-76
2024/03/01 11:55:12;;;;;;;4.03;0.80;;;9.80;1.00;;;;;;6257134;22;39783;-75
2024/03/01 11:57:57;;;;;;;3.47;0.93;;;9.60;1.00;;;;;;6258740;22;47090;-75
2024/03/01 12:00:38;;;;;;;5.73;1.30;;;9.40;1.00;;;;;;6255393;22;38753;-75
2024/03/01 12:03:45;;;;;;;6.60;1.20;;;9.20;1.00;;;;;;6257065;22;38477;-75
2024/03/01 12:06:31;;;;;;;7.70;1.13;;;9.20;1.00;;;;;;6201203;22;38860;-76
2024/03/01 12:09:18;;;;;;;1.80;0.70;;;9.10;1.00;;;;;;6262228;22;39562;-75
2024/03/01 12:12:09;;;;;;;5.13;1.43;;;9.10;1.00;;;;;;6261378;22;48839;-75
2024/03/01 12:14:40;;;;;;;7.57;1.10;;;9.00;1.00;;;;;;6268587;22;48711;-75
2024/03/01 12:17:16;;;;;;;2.50;0.87;;;9.00;1.00;;;;;;6256147;22;39650;-75
2024/03/01 12:20:05;;;;;;;2.33;0.70;;;9.00;1.00;;;;;;6257843;22;39047;-76
2024/03/01 12:22:49;;;;;;;4.97;1.00;;;9.00;1.00;;;;;;6256546;22;48383;-77
2024/03/01 12:25:18;;;;;;;4.73;1.20;;;9.10;1.00;;;;;;6257473;22;37968;-76
2024/03/01 12:28:11;;;;;;;1.77;0.80;;;9.20;1.00;;;;;;6259051;22;39945;-76
2024/03/01 12:30:37;;;;;;;4.47;0.88;;;9.20;1.00;;;;;;6255097;22;47254;-77
2024/03/01 12:33:48;;;;;;;6.53;0.90;;;9.20;1.00;;;;;;6255605;22;40183;-75
2024/03/01 12:36:17;;;;;;;3.60;0.80;;;9.20;1.00;;;;;;6254902;22;37690;-75
2024/03/01 12:38:49;;;;;;;4.80;1.50;;;9.20;1.00;;;;;;6255045;22;41083;-75
2024/03/01 12:41:52;;;;;;;2.38;0.60;;;9.30;1.00;;;;;;6255167;22;37293;-75
2024/03/01 12:44:25;;;;;;;4.68;1.10;;;9.30;1.00;;;;;;6255993;22;38907;-75
2024/03/01 12:47:10;;;;;;;2.50;0.80;;;9.40;1.00;;;;;;6256173;22;37603;-75
2024/03/01 12:49:51;;;;;;;2.67;0.60;;;9.40;1.00;;;;;;6255875;22;48573;-75
2024/03/01 12:52:46;;;;;;;5.03;1.13;;;9.30;1.00;;;;;;6257613;22;37724;-76
2024/03/01 12:55:27;;;;;;;8.43;1.20;;;9.20;1.00;;;;;;6258701;22;38334;-76
2024/03/01 12:58:13;;;;;;;4.63;1.00;;;9.20;1.00;;;;;;6259402;22;38787;-76
2024/03/01 13:01:13;;;;;;;3.27;0.70;;;9.20;1.00;;;;;;6257741;22;47631;-76
2024/03/01 13:04:06;;;;;;;3.77;1.10;;;9.20;1.00;;;;;;6255579;22;47335;-76
2024/03/01 13:06:34;;;;;;;6.50;1.38;;;9.20;1.00;;;;;;6258961;22;48057;-75
2024/03/01 13:09:14;;;;;;;4.77;1.20;;;9.20;1.00;;;;;;6259326;22;36188;-75
2024/03/01 13:11:45;;;;;;;4.03;1.10;;;9.20;1.00;;;;;;6257061;22;47066;-76
2024/03/01 13:14:22;;;;;;;4.60;0.80;;;9.20;1.00;;;;;;6256595;22;40660;-76